sensor_id;sensor_type;location;lat;lon;timestamp;P1;P2;P0
76101;PMS7003;64830;46.910;6.354;2023-04-24T00:00:13;0.00;0.00;0.00
76101;PMS7003;64830;46.910;6.354;2023-04-24T00:02:39;0.00;0.00;0.00
76101;PMS7003;64830;46.910;6.354;2023-04-24T00:05:06;2.00;0.00;0.00
76101;PMS7003;64830;46.910;6.354;2023-04-24T00:07:32;0.00;0.00;0.00
76101;PMS7003;64830;46.910;6.354;2023-04-24T00:09:58;0.00;0.00;0.00
76101;PMS7003;64830;46.910;6.354;2023-04-24T00:12:23;0.00;0.00;0.00
76101;PMS7003;64830;46.910;6.354;2023-04-24T00:14:50;0.00;0.00;0.00
76101;PMS7003;64830;46.910;6.354;2023-04-24T00:17:15;0.00;0.00;0.00
76101;PMS7003;64830;46.910;6.354;2023-04-24T00:19:41;0.00;0.00;0.00
76101;PMS7003;64830;46.910;6.354;2023-04-24T00:22:06;0.00;0.00;0.00
76101;PMS7003;64830;46.910;6.354;2023-04-24T00:24:32;0.00;0.00;0.00
76101;PMS7003;64830;46.910;6.354;2023-04-24T00:26:57;0.00;0.00;0.00
76101;PMS7003;64830;46.910;6.354;2023-04-24T00:29:23;0.00;0.00;0.00
76101;PMS7003;64830;46.910;6.354;2023-04-24T00:31:48;0.00;0.00;0.00
76101;PMS7003;64830;46.910;6.354;2023-04-24T00:34:14;0.00;0.00;0.00
76101;PMS7003;64830;46.910;6.354;2023-04-24T00:36:39;0.00;0.00;0.00
76101;PMS7003;64830;46.910;6.354;2023-04-24T00:39:05;0.00;0.00;0.00
76101;PMS7003;64830;46.910;6.354;2023-04-24T00:41:33;0.00;0.00;0.00
76101;PMS7003;64830;46.910;6.354;2023-04-24T00:43:59;0.00;0.00;0.00
76101;PMS7003;64830;46.910;6.354;2023-04-24T00:46:24;1.00;0.00;0.00
76101;PMS7003;64830;46.910;6.354;2023-04-24T00:48:50;0.00;0.00;0.00
76101;PMS7003;64830;46.910;6.354;2023-04-24T00:51:15;0.00;0.00;0.00
76101;PMS7003;64830;46.910;6.354;2023-04-24T00:53:40;1.00;0.00;0.00
76101;PMS7003;64830;46.910;6.354;2023-04-24T00:56:06;0.75;0.00;0.00
76101;PMS7003;64830;46.910;6.354;2023-04-24T00:58:31;1.00;0.00;0.00
76101;PMS7003;64830;46.910;6.354;2023-04-24T01:00:57;0.00;0.00;0.00
76101;PMS7003;64830;46.910;6.354;2023-04-24T01:03:28;0.00;0.00;0.00
76101;PMS7003;64830;46.910;6.354;2023-04-24T01:05:56;0.00;0.00;0.00
76101;PMS7003;64830;46.910;6.354;2023-04-24T01:08:23;0.00;0.00;0.00
76101;PMS7003;64830;46.910;6.354;2023-04-24T01:10:53;0.00;0.00;0.00
76101;PMS7003;64830;46.910;6.354;2023-04-24T01:13:19;0.00;0.00;0.00
76101;PMS7003;64830;46.910;6.354;2023-04-24T01:15:45;0.00;0.00;0.00
76101;PMS7003;64830;46.910;6.354;2023-04-24T01:18:11;0.25;0.25;0.00
76101;PMS7003;64830;46.910;6.354;2023-04-24T01:20:38;0.75;0.75;0.00
76101;PMS7003;64830;46.910;6.354;2023-04-24T01:23:05;0.00;0.00;0.00
76101;PMS7003;64830;46.910;6.354;2023-04-24T01:25:31;0.00;0.00;0.00
76101;PMS7003;64830;46.910;6.354;2023-04-24T01:27:57;0.00;0.00;0.00
76101;PMS7003;64830;46.910;6.354;2023-04-24T01:30:23;1.00;1.00;0.00
76101;PMS7003;64830;46.910;6.354;2023-04-24T01:32:49;0.00;0.00;0.00
76101;PMS7003;64830;46.910;6.354;2023-04-24T01:35:15;0.00;0.00;0.00
76101;PMS7003;64830;46.910;6.354;2023-04-24T01:37:40;0.00;0.00;0.00
76101;PMS7003;64830;46.910;6.354;2023-04-24T01:40:06;0.00;0.00;0.00
76101;PMS7003;64830;46.910;6.354;2023-04-24T01:42:32;0.00;0.00;0.00
76101;PMS7003;64830;46.910;6.354;2023-04-24T01:44:58;1.00;0.00;0.00
76101;PMS7003;64830;46.910;6.354;2023-04-24T01:47:24;0.00;0.00;0.00
76101;PMS7003;64830;46.910;6.354;2023-04-24T01:49:50;0.00;0.00;0.00
76101;PMS7003;64830;46.910;6.354;2023-04-24T01:52:16;0.00;0.00;0.00
76101;PMS7003;64830;46.910;6.354;2023-04-24T01:54:43;0.00;0.00;0.00
76101;PMS7003;64830;46.910;6.354;2023-04-24T01:57:09;0.00;0.00;0.00
76101;PMS7003;64830;46.910;6.354;2023-04-24T01:59:35;0.25;0.25;0.00
76101;PMS7003;64830;46.910;6.354;2023-04-24T02:02:01;0.00;0.00;0.00
76101;PMS7003;64830;46.910;6.354;2023-04-24T02:04:29;1.75;1.75;0.00
76101;PMS7003;64830;46.910;6.354;2023-04-24T02:06:55;0.00;0.00;0.00
76101;PMS7003;64830;46.910;6.354;2023-04-24T02:09:20;1.00;0.00;0.00
76101;PMS7003;64830;46.910;6.354;2023-04-24T02:11:46;0.50;0.00;0.00
76101;PMS7003;64830;46.910;6.354;2023-04-24T02:14:11;1.00;1.00;0.00
76101;PMS7003;64830;46.910;6.354;2023-04-24T02:16:37;1.00;1.00;1.00
76101;PMS7003;64830;46.910;6.354;2023-04-24T02:19:02;0.00;0.00;0.00
76101;PMS7003;64830;46.910;6.354;2023-04-24T02:21:28;0.00;0.00;0.00
76101;PMS7003;64830;46.910;6.354;2023-04-24T02:23:55;0.00;0.00;0.00
76101;PMS7003;64830;46.910;6.354;2023-04-24T02:26:21;0.00;0.00;0.00
76101;PMS7003;64830;46.910;6.354;2023-04-24T02:28:47;0.00;0.00;0.00
76101;PMS7003;64830;46.910;6.354;2023-04-24T02:31:12;0.00;0.00;0.00
76101;PMS7003;64830;46.910;6.354;2023-04-24T02:33:37;1.00;0.00;0.00
76101;PMS7003;64830;46.910;6.354;2023-04-24T02:36:03;0.00;0.00;0.00
76101;PMS7003;64830;46.910;6.354;2023-04-24T02:38:28;0.00;0.00;0.00
76101;PMS7003;64830;46.910;6.354;2023-04-24T02:40:54;0.00;0.00;0.00
76101;PMS7003;64830;46.910;6.354;2023-04-24T02:43:20;1.00;0.00;0.00
76101;PMS7003;64830;46.910;6.354;2023-04-24T02:45:45;2.50;1.50;1.00
76101;PMS7003;64830;46.910;6.354;2023-04-24T02:48:11;1.00;0.50;0.25
76101;PMS7003;64830;46.910;6.354;2023-04-24T02:50:36;0.00;0.00;0.00
76101;PMS7003;64830;46.910;6.354;2023-04-24T02:53:02;1.00;0.75;0.50
76101;PMS7003;64830;46.910;6.354;2023-04-24T02:55:27;3.75;1.00;1.00
76101;PMS7003;64830;46.910;6.354;2023-04-24T02:57:53;1.00;1.00;0.00
76101;PMS7003;64830;46.910;6.354;2023-04-24T03:00:18;1.25;1.00;1.00
76101;PMS7003;64830;46.910;6.354;2023-04-24T03:02:44;1.75;1.75;1.25
76101;PMS7003;64830;46.910;6.354;2023-04-24T03:05:10;1.50;1.50;1.00
76101;PMS7003;64830;46.910;6.354;2023-04-24T03:07:37;2.00;2.00;2.00
76101;PMS7003;64830;46.910;6.354;2023-04-24T03:10:02;2.00;1.75;1.00
76101;PMS7003;64830;46.910;6.354;2023-04-24T03:12:29;4.50;2.75;2.25
76101;PMS7003;64830;46.910;6.354;2023-04-24T03:14:54;2.75;2.75;2.00
76101;PMS7003;64830;46.910;6.354;2023-04-24T03:17:19;3.50;2.50;1.50
76101;PMS7003;64830;46.910;6.354;2023-04-24T03:19:45;3.50;3.50;2.50
76101;PMS7003;64830;46.910;6.354;2023-04-24T03:22:10;2.50;1.75;1.75
76101;PMS7003;64830;46.910;6.354;2023-04-24T03:24:36;7.00;7.00;4.00
76101;PMS7003;64830;46.910;6.354;2023-04-24T03:27:01;4.50;4.50;4.00
76101;PMS7003;64830;46.910;6.354;2023-04-24T03:29:27;6.00;6.00;4.00
76101;PMS7003;64830;46.910;6.354;2023-04-24T03:31:52;3.25;3.00;3.00
76101;PMS7003;64830;46.910;6.354;2023-04-24T03:34:17;1.50;0.50;0.50
76101;PMS7003;64830;46.910;6.354;2023-04-24T03:36:43;2.00;2.00;2.00
76101;PMS7003;64830;46.910;6.354;2023-04-24T03:39:08;0.00;0.00;0.00
76101;PMS7003;64830;46.910;6.354;2023-04-24T03:41:33;3.00;2.50;2.25
76101;PMS7003;64830;46.910;6.354;2023-04-24T03:43:59;2.00;2.00;2.00
76101;PMS7003;64830;46.910;6.354;2023-04-24T03:46:25;5.50;4.00;3.00
76101;PMS7003;64830;46.910;6.354;2023-04-24T03:48:50;4.00;3.00;3.00
76101;PMS7003;64830;46.910;6.354;2023-04-24T03:51:16;4.00;4.00;3.25
76101;PMS7003;64830;46.910;6.354;2023-04-24T03:53:41;5.50;5.50;4.50
76101;PMS7003;64830;46.910;6.354;2023-04-24T03:56:06;7.25;6.75;6.00
76101;PMS7003;64830;46.910;6.354;2023-04-24T03:58:32;7.75;6.50;4.50
76101;PMS7003;64830;46.910;6.354;2023-04-24T04:00:58;8.00;8.00;7.00
76101;PMS7003;64830;46.910;6.354;2023-04-24T04:03:23;2.25;2.25;2.00
76101;PMS7003;64830;46.910;6.354;2023-04-24T04:05:50;2.00;2.00;2.00
76101;PMS7003;64830;46.910;6.354;2023-04-24T04:08:15;1.50;1.50;1.50
76101;PMS7003;64830;46.910;6.354;2023-04-24T04:10:41;1.00;1.00;1.00
76101;PMS7003;64830;46.910;6.354;2023-04-24T04:13:06;2.75;2.00;1.00
76101;PMS7003;64830;46.910;6.354;2023-04-24T04:15:32;3.75;3.75;3.00
76101;PMS7003;64830;46.910;6.354;2023-04-24T04:17:57;2.25;2.25;2.00
76101;PMS7003;64830;46.910;6.354;2023-04-24T04:20:22;1.50;1.25;1.00
76101;PMS7003;64830;46.910;6.354;2023-04-24T04:22:48;6.00;6.00;4.00
76101;PMS7003;64830;46.910;6.354;2023-04-24T04:25:13;7.00;4.00;3.50
76101;PMS7003;64830;46.910;6.354;2023-04-24T04:27:39;9.75;7.50;6.25
76101;PMS7003;64830;46.910;6.354;2023-04-24T04:30:06;8.50;6.00;3.00
76101;PMS7003;64830;46.910;6.354;2023-04-24T04:32:33;7.50;6.75;5.50
76101;PMS7003;64830;46.910;6.354;2023-04-24T04:35:00;7.25;6.00;3.00
76101;PMS7003;64830;46.910;6.354;2023-04-24T04:37:29;8.00;8.00;6.75
76101;PMS7003;64830;46.910;6.354;2023-04-24T04:39:55;8.00;4.00;4.00
76101;PMS7003;64830;46.910;6.354;2023-04-24T04:42:20;4.00;4.00;3.00
76101;PMS7003;64830;46.910;6.354;2023-04-24T04:44:46;4.50;2.00;1.75
76101;PMS7003;64830;46.910;6.354;2023-04-24T04:47:11;2.00;2.00;2.00
76101;PMS7003;64830;46.910;6.354;2023-04-24T04:49:37;2.25;2.00;1.25
76101;PMS7003;64830;46.910;6.354;2023-04-24T04:52:03;1.50;1.00;1.00
76101;PMS7003;64830;46.910;6.354;2023-04-24T04:54:29;1.50;1.50;1.00
76101;PMS7003;64830;46.910;6.354;2023-04-24T04:56:54;2.75;2.75;2.00
76101;PMS7003;64830;46.910;6.354;2023-04-24T04:59:20;4.75;2.75;2.00
76101;PMS7003;64830;46.910;6.354;2023-04-24T05:01:45;3.00;3.00;2.00
76101;PMS7003;64830;46.910;6.354;2023-04-24T05:04:11;3.50;3.00;2.00
76101;PMS7003;64830;46.910;6.354;2023-04-24T05:06:36;1.00;1.00;1.00
76101;PMS7003;64830;46.910;6.354;2023-04-24T05:09:02;1.25;1.00;1.00
76101;PMS7003;64830;46.910;6.354;2023-04-24T05:11:28;2.00;2.00;2.00
76101;PMS7003;64830;46.910;6.354;2023-04-24T05:13:54;2.50;2.50;2.00
76101;PMS7003;64830;46.910;6.354;2023-04-24T05:16:20;7.75;4.50;3.25
76101;PMS7003;64830;46.910;6.354;2023-04-24T05:18:45;4.00;3.50;3.50
76101;PMS7003;64830;46.910;6.354;2023-04-24T05:21:11;2.00;2.00;2.00
76101;PMS7003;64830;46.910;6.354;2023-04-24T05:23:36;3.00;3.00;2.25
76101;PMS7003;64830;46.910;6.354;2023-04-24T05:26:01;3.00;3.00;2.25
76101;PMS7003;64830;46.910;6.354;2023-04-24T05:28:27;6.00;4.25;2.00
76101;PMS7003;64830;46.910;6.354;2023-04-24T05:30:55;2.25;2.25;2.25
76101;PMS7003;64830;46.910;6.354;2023-04-24T05:33:21;11.25;9.50;8.00
76101;PMS7003;64830;46.910;6.354;2023-04-24T05:35:47;4.50;4.50;3.75
76101;PMS7003;64830;46.910;6.354;2023-04-24T05:38:13;3.00;3.00;3.00
76101;PMS7003;64830;46.910;6.354;2023-04-24T05:40:39;6.50;4.25;4.00
76101;PMS7003;64830;46.910;6.354;2023-04-24T05:43:05;5.00;5.00;3.00
76101;PMS7003;64830;46.910;6.354;2023-04-24T05:45:30;7.00;5.50;3.00
76101;PMS7003;64830;46.910;6.354;2023-04-24T05:47:56;3.00;3.00;2.00
76101;PMS7003;64830;46.910;6.354;2023-04-24T05:50:22;2.00;2.00;1.75
76101;PMS7003;64830;46.910;6.354;2023-04-24T05:52:47;2.25;1.75;1.25
76101;PMS7003;64830;46.910;6.354;2023-04-24T05:55:12;4.50;4.50;3.75
76101;PMS7003;64830;46.910;6.354;2023-04-24T05:57:38;13.50;13.25;12.00
76101;PMS7003;64830;46.910;6.354;2023-04-24T06:00:04;43.00;36.50;25.75
76101;PMS7003;64830;46.910;6.354;2023-04-24T06:02:30;58.50;47.75;33.25
76101;PMS7003;64830;46.910;6.354;2023-04-24T06:04:58;27.25;24.75;19.00
76101;PMS7003;64830;46.910;6.354;2023-04-24T06:07:24;71.50;56.00;37.25
76101;PMS7003;64830;46.910;6.354;2023-04-24T06:09:51;54.75;43.75;29.25
76101;PMS7003;64830;46.910;6.354;2023-04-24T06:12:17;61.50;46.50;28.00
76101;PMS7003;64830;46.910;6.354;2023-04-24T06:14:42;44.00;33.25;22.00
76101;PMS7003;64830;46.910;6.354;2023-04-24T06:17:08;48.50;38.25;24.00
76101;PMS7003;64830;46.910;6.354;2023-04-24T06:19:33;94.00;80.00;43.00
76101;PMS7003;64830;46.910;6.354;2023-04-24T06:21:59;64.50;53.75;34.50
76101;PMS7003;64830;46.910;6.354;2023-04-24T06:24:27;88.25;72.75;43.50
76101;PMS7003;64830;46.910;6.354;2023-04-24T06:26:53;132.25;114.25;58.25
76101;PMS7003;64830;46.910;6.354;2023-04-24T06:29:19;71.50;56.25;34.25
76101;PMS7003;64830;46.910;6.354;2023-04-24T06:31:44;13.00;11.50;7.50
76101;PMS7003;64830;46.910;6.354;2023-04-24T06:34:10;4.75;4.00;3.75
76101;PMS7003;64830;46.910;6.354;2023-04-24T06:36:35;7.50;4.50;4.25
76101;PMS7003;64830;46.910;6.354;2023-04-24T06:39:01;7.00;4.00;3.25
76101;PMS7003;64830;46.910;6.354;2023-04-24T06:41:26;5.75;3.75;3.75
76101;PMS7003;64830;46.910;6.354;2023-04-24T06:43:52;3.75;3.25;2.00
76101;PMS7003;64830;46.910;6.354;2023-04-24T06:46:18;18.25;18.25;12.75
76101;PMS7003;64830;46.910;6.354;2023-04-24T06:48:43;7.25;6.00;4.25
76101;PMS7003;64830;46.910;6.354;2023-04-24T06:51:09;9.50;7.75;6.00
76101;PMS7003;64830;46.910;6.354;2023-04-24T06:53:35;10.50;7.50;6.00
76101;PMS7003;64830;46.910;6.354;2023-04-24T06:56:00;12.75;10.50;5.50
76101;PMS7003;64830;46.910;6.354;2023-04-24T06:58:26;12.50;11.25;8.00
76101;PMS7003;64830;46.910;6.354;2023-04-24T07:00:51;19.25;17.50;12.00
76101;PMS7003;64830;46.910;6.354;2023-04-24T07:03:16;8.50;7.25;5.50
76101;PMS7003;64830;46.910;6.354;2023-04-24T07:05:42;4.25;4.25;3.50
76101;PMS7003;64830;46.910;6.354;2023-04-24T07:08:07;6.25;4.25;3.00
76101;PMS7003;64830;46.910;6.354;2023-04-24T07:10:36;3.75;3.75;3.50
76101;PMS7003;64830;46.910;6.354;2023-04-24T07:13:01;7.25;5.00;4.25
76101;PMS7003;64830;46.910;6.354;2023-04-24T07:15:27;11.50;8.75;7.00
76101;PMS7003;64830;46.910;6.354;2023-04-24T07:17:52;12.00;11.25;9.25
76101;PMS7003;64830;46.910;6.354;2023-04-24T07:20:18;14.50;13.50;11.00
76101;PMS7003;64830;46.910;6.354;2023-04-24T07:22:43;12.00;10.00;8.00
76101;PMS7003;64830;46.910;6.354;2023-04-24T07:25:09;7.75;7.75;6.00
76101;PMS7003;64830;46.910;6.354;2023-04-24T07:27:34;17.50;17.50;13.50
76101;PMS7003;64830;46.910;6.354;2023-04-24T07:30:01;19.25;16.00;12.25
76101;PMS7003;64830;46.910;6.354;2023-04-24T07:32:27;7.25;7.25;6.50
76101;PMS7003;64830;46.910;6.354;2023-04-24T07:34:52;19.00;18.00;12.75
76101;PMS7003;64830;46.910;6.354;2023-04-24T07:37:17;9.00;8.50;6.50
76101;PMS7003;64830;46.910;6.354;2023-04-24T07:39:43;12.50;12.25;7.75
76101;PMS7003;64830;46.910;6.354;2023-04-24T07:42:09;9.50;8.25;7.00
76101;PMS7003;64830;46.910;6.354;2023-04-24T07:44:34;6.00;5.00;4.75
76101;PMS7003;64830;46.910;6.354;2023-04-24T07:47:00;4.00;4.00;2.00
76101;PMS7003;64830;46.910;6.354;2023-04-24T07:49:26;3.75;3.75;3.25
76101;PMS7003;64830;46.910;6.354;2023-04-24T07:51:52;5.00;4.25;3.00
76101;PMS7003;64830;46.910;6.354;2023-04-24T07:54:18;7.00;6.25;3.00
76101;PMS7003;64830;46.910;6.354;2023-04-24T07:56:43;17.50;13.25;10.75
76101;PMS7003;64830;46.910;6.354;2023-04-24T07:59:09;6.75;4.00;2.00
76101;PMS7003;64830;46.910;6.354;2023-04-24T08:01:35;9.25;8.25;7.00
76101;PMS7003;64830;46.910;6.354;2023-04-24T08:04:01;5.50;4.00;3.00
76101;PMS7003;64830;46.910;6.354;2023-04-24T08:06:27;9.25;7.00;6.00
76101;PMS7003;64830;46.910;6.354;2023-04-24T08:08:56;12.50;12.00;8.25
76101;PMS7003;64830;46.910;6.354;2023-04-24T08:11:22;19.00;17.00;12.75
76101;PMS7003;64830;46.910;6.354;2023-04-24T08:13:48;6.00;4.25;2.75
76101;PMS7003;64830;46.910;6.354;2023-04-24T08:16:13;15.75;12.00;8.25
76101;PMS7003;64830;46.910;6.354;2023-04-24T08:18:39;12.75;12.00;8.00
76101;PMS7003;64830;46.910;6.354;2023-04-24T08:21:04;12.75;11.50;8.25
76101;PMS7003;64830;46.910;6.354;2023-04-24T08:23:30;15.25;14.50;10.50
76101;PMS7003;64830;46.910;6.354;2023-04-24T08:25:55;13.50;12.25;11.00
76101;PMS7003;64830;46.910;6.354;2023-04-24T08:28:21;7.00;4.50;3.00
76101;PMS7003;64830;46.910;6.354;2023-04-24T08:30:47;11.75;11.25;8.25
76101;PMS7003;64830;46.910;6.354;2023-04-24T08:33:13;3.00;3.00;2.00
76101;PMS7003;64830;46.910;6.354;2023-04-24T08:35:39;7.25;7.00;6.00
76101;PMS7003;64830;46.910;6.354;2023-04-24T08:38:04;10.50;8.50;6.75
76101;PMS7003;64830;46.910;6.354;2023-04-24T08:40:31;3.50;3.00;2.75
76101;PMS7003;64830;46.910;6.354;2023-04-24T08:42:59;5.00;3.00;2.50
76101;PMS7003;64830;46.910;6.354;2023-04-24T08:45:25;4.25;2.00;1.75
76101;PMS7003;64830;46.910;6.354;2023-04-24T08:47:54;7.50;7.50;6.75
76101;PMS7003;64830;46.910;6.354;2023-04-24T08:50:20;8.00;7.25;6.00
76101;PMS7003;64830;46.910;6.354;2023-04-24T08:52:47;4.00;4.00;3.75
76101;PMS7003;64830;46.910;6.354;2023-04-24T08:55:15;4.00;4.00;2.75
76101;PMS7003;64830;46.910;6.354;2023-04-24T08:57:43;4.00;3.50;2.00
76101;PMS7003;64830;46.910;6.354;2023-04-24T09:00:10;3.75;3.00;2.75
76101;PMS7003;64830;46.910;6.354;2023-04-24T09:02:37;3.00;3.00;3.00
76101;PMS7003;64830;46.910;6.354;2023-04-24T09:05:06;3.25;2.00;2.00
76101;PMS7003;64830;46.910;6.354;2023-04-24T09:07:33;4.50;4.50;3.25
76101;PMS7003;64830;46.910;6.354;2023-04-24T09:10:01;12.00;8.75;6.50
76101;PMS7003;64830;46.910;6.354;2023-04-24T09:12:27;22.25;16.50;9.75
76101;PMS7003;64830;46.910;6.354;2023-04-24T09:14:53;24.00;18.00;13.00
76101;PMS7003;64830;46.910;6.354;2023-04-24T09:17:20;17.75;15.25;12.50
76101;PMS7003;64830;46.910;6.354;2023-04-24T09:19:47;13.50;13.50;10.75
76101;PMS7003;64830;46.910;6.354;2023-04-24T09:22:13;9.00;9.00;8.00
76101;PMS7003;64830;46.910;6.354;2023-04-24T09:24:40;10.50;8.25;6.00
76101;PMS7003;64830;46.910;6.354;2023-04-24T09:27:05;11.75;10.75;7.75
76101;PMS7003;64830;46.910;6.354;2023-04-24T09:29:31;17.00;15.75;12.00
76101;PMS7003;64830;46.910;6.354;2023-04-24T09:31:57;8.00;7.00;6.00
76101;PMS7003;64830;46.910;6.354;2023-04-24T09:34:25;3.00;2.00;1.50
76101;PMS7003;64830;46.910;6.354;2023-04-24T09:36:52;4.00;4.00;3.00
76101;PMS7003;64830;46.910;6.354;2023-04-24T09:39:19;10.00;7.50;7.00
76101;PMS7003;64830;46.910;6.354;2023-04-24T09:44:13;6.00;6.00;3.00
76101;PMS7003;64830;46.910;6.354;2023-04-24T09:46:41;3.00;3.00;2.25
76101;PMS7003;64830;46.910;6.354;2023-04-24T09:49:07;3.00;3.00;2.50
76101;PMS7003;64830;46.910;6.354;2023-04-24T09:51:43;6.00;6.00;4.00
76101;PMS7003;64830;46.910;6.354;2023-04-24T09:54:15;8.00;8.00;6.75
76101;PMS7003;64830;46.910;6.354;2023-04-24T09:56:48;7.25;7.25;6.25
76101;PMS7003;64830;46.910;6.354;2023-04-24T09:59:16;8.00;7.00;6.00
76101;PMS7003;64830;46.910;6.354;2023-04-24T10:01:43;1.00;1.00;1.00
76101;PMS7003;64830;46.910;6.354;2023-04-24T10:06:46;4.50;3.25;3.00
76101;PMS7003;64830;46.910;6.354;2023-04-24T10:09:13;3.00;3.00;3.00
76101;PMS7003;64830;46.910;6.354;2023-04-24T10:11:41;3.50;2.75;2.00
76101;PMS7003;64830;46.910;6.354;2023-04-24T10:14:09;6.50;5.50;4.00
76101;PMS7003;64830;46.910;6.354;2023-04-24T10:16:37;20.50;14.50;10.75
76101;PMS7003;64830;46.910;6.354;2023-04-24T10:19:04;10.00;9.00;7.00
76101;PMS7003;64830;46.910;6.354;2023-04-24T10:21:30;9.00;9.00;7.50
76101;PMS7003;64830;46.910;6.354;2023-04-24T10:23:56;7.25;6.00;2.50
76101;PMS7003;64830;46.910;6.354;2023-04-24T10:26:22;7.75;5.00;4.00
76101;PMS7003;64830;46.910;6.354;2023-04-24T10:28:48;3.00;3.00;2.00
76101;PMS7003;64830;46.910;6.354;2023-04-24T10:31:13;4.75;4.75;3.50
76101;PMS7003;64830;46.910;6.354;2023-04-24T10:33:40;3.00;3.00;2.00
76101;PMS7003;64830;46.910;6.354;2023-04-24T10:36:07;4.00;4.00;3.00
76101;PMS7003;64830;46.910;6.354;2023-04-24T10:38:35;3.25;3.25;3.00
76101;PMS7003;64830;46.910;6.354;2023-04-24T10:41:09;3.50;3.50;2.75
76101;PMS7003;64830;46.910;6.354;2023-04-24T10:43:39;3.25;2.75;2.00
76101;PMS7003;64830;46.910;6.354;2023-04-24T10:46:05;0.75;0.00;0.00
76101;PMS7003;64830;46.910;6.354;2023-04-24T10:48:31;1.50;1.25;1.00
76101;PMS7003;64830;46.910;6.354;2023-04-24T10:50:58;5.00;2.75;2.50
76101;PMS7003;64830;46.910;6.354;2023-04-24T10:53:24;4.00;4.00;3.00
76101;PMS7003;64830;46.910;6.354;2023-04-24T10:58:22;6.00;3.50;3.50
76101;PMS7003;64830;46.910;6.354;2023-04-24T11:01:00;5.25;4.00;3.75
76101;PMS7003;64830;46.910;6.354;2023-04-24T11:03:29;5.00;5.00;2.00
76101;PMS7003;64830;46.910;6.354;2023-04-24T11:06:07;6.25;4.00;2.75
76101;PMS7003;64830;46.910;6.354;2023-04-24T11:08:42;6.00;6.00;4.00
76101;PMS7003;64830;46.910;6.354;2023-04-24T11:11:17;3.25;3.25;3.00
76101;PMS7003;64830;46.910;6.354;2023-04-24T11:24:31;6.25;5.00;3.25
76101;PMS7003;64830;46.910;6.354;2023-04-24T11:32:24;8.75;8.75;6.00
76101;PMS7003;64830;46.910;6.354;2023-04-24T11:34:52;4.00;4.00;3.50
76101;PMS7003;64830;46.910;6.354;2023-04-24T11:37:20;9.00;9.00;7.00
76101;PMS7003;64830;46.910;6.354;2023-04-24T11:39:49;9.25;8.00;6.25
76101;PMS7003;64830;46.910;6.354;2023-04-24T11:42:15;9.25;9.25;6.00
76101;PMS7003;64830;46.910;6.354;2023-04-24T11:44:41;10.00;10.00;8.00
76101;PMS7003;64830;46.910;6.354;2023-04-24T11:47:08;7.00;7.00;7.00
76101;PMS7003;64830;46.910;6.354;2023-04-24T11:49:33;8.00;8.00;6.50
76101;PMS7003;64830;46.910;6.354;2023-04-24T11:52:01;4.00;4.00;4.00
76101;PMS7003;64830;46.910;6.354;2023-04-24T11:54:27;4.00;4.00;3.25
76101;PMS7003;64830;46.910;6.354;2023-04-24T11:56:53;3.25;3.25;2.75
76101;PMS7003;64830;46.910;6.354;2023-04-24T11:59:18;7.00;4.75;3.50
76101;PMS7003;64830;46.910;6.354;2023-04-24T12:01:47;7.50;7.00;3.50
76101;PMS7003;64830;46.910;6.354;2023-04-24T12:04:13;5.50;4.75;3.75
76101;PMS7003;64830;46.910;6.354;2023-04-24T12:09:39;14.50;13.25;9.75
76101;PMS7003;64830;46.910;6.354;2023-04-24T12:12:06;9.00;8.75;5.50
76101;PMS7003;64830;46.910;6.354;2023-04-24T12:14:32;8.25;7.50;5.25
76101;PMS7003;64830;46.910;6.354;2023-04-24T12:16:57;8.75;4.75;3.25
76101;PMS7003;64830;46.910;6.354;2023-04-24T12:19:23;9.50;9.50;8.25
76101;PMS7003;64830;46.910;6.354;2023-04-24T12:21:59;7.00;4.00;3.25
76101;PMS7003;64830;46.910;6.354;2023-04-24T12:24:25;5.75;5.00;3.25
76101;PMS7003;64830;46.910;6.354;2023-04-24T12:26:51;6.00;6.00;4.00
76101;PMS7003;64830;46.910;6.354;2023-04-24T12:29:21;2.25;2.25;2.00
76101;PMS7003;64830;46.910;6.354;2023-04-24T12:31:47;5.75;5.75;4.00
76101;PMS7003;64830;46.910;6.354;2023-04-24T12:34:23;4.25;4.00;3.00
76101;PMS7003;64830;46.910;6.354;2023-04-24T12:36:51;9.00;7.75;4.00
76101;PMS7003;64830;46.910;6.354;2023-04-24T12:39:17;7.00;7.00;5.25
76101;PMS7003;64830;46.910;6.354;2023-04-24T12:42:17;5.00;5.00;4.00
76101;PMS7003;64830;46.910;6.354;2023-04-24T12:44:36;5.75;5.50;3.50
76101;PMS7003;64830;46.910;6.354;2023-04-24T12:47:02;8.50;7.75;5.00
76101;PMS7003;64830;46.910;6.354;2023-04-24T12:49:27;3.00;3.00;3.00
76101;PMS7003;64830;46.910;6.354;2023-04-24T12:51:55;14.50;12.75;8.50
76101;PMS7003;64830;46.910;6.354;2023-04-24T12:54:20;3.50;3.00;1.75
76101;PMS7003;64830;46.910;6.354;2023-04-24T12:56:47;4.00;3.75;2.25
76101;PMS7003;64830;46.910;6.354;2023-04-24T12:59:12;3.00;3.00;2.50
76101;PMS7003;64830;46.910;6.354;2023-04-24T13:01:38;3.75;3.00;2.50
76101;PMS7003;64830;46.910;6.354;2023-04-24T13:04:04;3.00;3.00;2.50
76101;PMS7003;64830;46.910;6.354;2023-04-24T13:06:30;4.00;3.00;2.00
76101;PMS7003;64830;46.910;6.354;2023-04-24T13:08:56;2.00;2.00;2.00
76101;PMS7003;64830;46.910;6.354;2023-04-24T13:11:22;5.00;4.75;4.50
76101;PMS7003;64830;46.910;6.354;2023-04-24T13:13:48;23.25;22.50;16.00
76101;PMS7003;64830;46.910;6.354;2023-04-24T13:16:14;14.00;12.25;11.00
76101;PMS7003;64830;46.910;6.354;2023-04-24T13:18:39;24.75;23.50;16.75
76101;PMS7003;64830;46.910;6.354;2023-04-24T13:21:04;50.25;39.50;27.00
76101;PMS7003;64830;46.910;6.354;2023-04-24T13:23:30;43.25;34.75;24.00
76101;PMS7003;64830;46.910;6.354;2023-04-24T13:25:55;11.00;10.25;5.50
76101;PMS7003;64830;46.910;6.354;2023-04-24T13:28:23;6.50;5.00;4.00
76101;PMS7003;64830;46.910;6.354;2023-04-24T13:30:50;9.50;7.50;6.00
76101;PMS7003;64830;46.910;6.354;2023-04-24T13:33:15;8.50;7.75;4.00
76101;PMS7003;64830;46.910;6.354;2023-04-24T13:35:41;4.00;4.00;3.00
76101;PMS7003;64830;46.910;6.354;2023-04-24T13:38:06;7.75;6.00;5.25
76101;PMS7003;64830;46.910;6.354;2023-04-24T13:40:32;4.00;4.00;3.00
76101;PMS7003;64830;46.910;6.354;2023-04-24T13:42:58;8.00;7.25;7.00
76101;PMS7003;64830;46.910;6.354;2023-04-24T13:45:23;11.00;11.00;8.00
76101;PMS7003;64830;46.910;6.354;2023-04-24T13:47:48;5.50;5.50;4.00
76101;PMS7003;64830;46.910;6.354;2023-04-24T13:50:14;16.00;14.25;11.00
76101;PMS7003;64830;46.910;6.354;2023-04-24T13:52:40;17.50;17.50;12.25
76101;PMS7003;64830;46.910;6.354;2023-04-24T13:55:05;4.25;4.25;3.00
76101;PMS7003;64830;46.910;6.354;2023-04-24T13:57:31;6.50;6.50;3.00
76101;PMS7003;64830;46.910;6.354;2023-04-24T13:59:57;10.00;7.50;4.00
76101;PMS7003;64830;46.910;6.354;2023-04-24T14:02:26;4.50;2.75;2.00
76101;PMS7003;64830;46.910;6.354;2023-04-24T14:04:52;10.50;10.50;9.25
76101;PMS7003;64830;46.910;6.354;2023-04-24T14:07:17;10.50;10.50;9.00
76101;PMS7003;64830;46.910;6.354;2023-04-24T14:09:42;12.25;12.25;9.25
76101;PMS7003;64830;46.910;6.354;2023-04-24T14:12:08;22.25;17.00;13.75
76101;PMS7003;64830;46.910;6.354;2023-04-24T14:14:33;4.00;3.00;2.75
76101;PMS7003;64830;46.910;6.354;2023-04-24T14:16:59;27.00;27.00;17.50
76101;PMS7003;64830;46.910;6.354;2023-04-24T14:19:24;16.25;16.00;12.25
76101;PMS7003;64830;46.910;6.354;2023-04-24T14:21:50;5.00;5.00;4.50
76101;PMS7003;64830;46.910;6.354;2023-04-24T14:24:15;7.00;7.00;4.00
76101;PMS7003;64830;46.910;6.354;2023-04-24T14:26:41;5.00;5.00;4.00
76101;PMS7003;64830;46.910;6.354;2023-04-24T14:29:06;9.25;8.00;6.75
76101;PMS7003;64830;46.910;6.354;2023-04-24T14:31:31;4.75;4.75;4.00
76101;PMS7003;64830;46.910;6.354;2023-04-24T14:33:57;15.00;14.75;11.00
76101;PMS7003;64830;46.910;6.354;2023-04-24T14:36:22;15.50;14.75;11.00